Time;durP1;ratioP1;P1;durP2;ratioP2;P2;SDS_P1;SDS_P2;PMS_P1;PMS_P2;Temp;Humidity;BMP_temperature;BMP_pressure;BME280_temperature;BME280_humidity;BME280_pressure;Samples;Min_cycle;Max_cycle;Signal;HPM_P1;HPM_P2
2020/12/18 00:00:07;;;;;;;17.13;8.38;;;;;;;12.64;59.01;101958.50;5069552;28;20056;-71
2020/12/18 00:02:33;;;;;;;23.38;9.88;;;;;;;12.62;59.04;101961.09;5069160;28;20048;-71
2020/12/18 00:04:59;;;;;;;19.27;8.68;;;;;;;12.28;60.11;101964.56;5067301;28;20219;-70
2020/12/18 00:07:25;;;;;;;15.02;9.18;;;;;;;12.42;59.56;101965.44;5069744;28;20074;-70
2020/12/18 00:09:50;;;;;;;23.58;9.85;;;;;;;12.35;59.66;101966.31;5083508;28;20072;-70
2020/12/18 00:12:15;;;;;;;19.40;8.07;;;;;;;12.52;58.81;101964.53;5066859;28;20035;-70
2020/12/18 00:14:41;;;;;;;21.95;9.45;;;;;;;12.90;57.71;101973.97;5049481;28;20032;-73
2020/12/18 00:17:06;;;;;;;21.02;8.93;;;;;;;13.13;57.12;101963.53;5069191;28;20032;-70
2020/12/18 00:19:32;;;;;;;20.27;8.85;;;;;;;11.76;61.18;101974.00;5066474;28;20042;-71
2020/12/18 00:21:59;;;;;;;23.25;8.65;;;;;;;12.40;59.29;101965.44;5068840;28;20113;-73
2020/12/18 00:24:25;;;;;;;19.52;9.45;;;;;;;12.25;60.11;101961.09;5067991;28;20093;-70
2020/12/18 00:26:51;;;;;;;20.70;7.45;;;;;;;12.25;59.89;101966.28;5068459;28;20043;-70
2020/12/18 00:29:16;;;;;;;15.52;7.82;;;;;;;12.22;60.51;101965.44;5070593;28;20033;-72
2020/12/18 00:31:42;;;;;;;19.17;8.90;;;;;;;12.82;58.22;101967.97;5066186;28;20393;-73
2020/12/18 00:34:07;;;;;;;18.00;8.40;;;;;;;12.23;59.82;101968.06;5067113;28;20042;-73
2020/12/18 00:36:33;;;;;;;21.45;9.25;;;;;;;12.55;59.16;101969.75;5066102;28;20081;-70
2020/12/18 00:38:59;;;;;;;22.42;8.25;;;;;;;12.54;59.21;101973.19;5066278;28;20071;-71
2020/12/18 00:41:24;;;;;;;24.08;9.50;;;;;;;12.38;59.68;101972.34;5068531;28;20119;-73
2020/12/18 00:43:50;;;;;;;19.77;8.38;;;;;;;13.15;57.08;101968.69;5069005;28;20044;-72
2020/12/18 00:46:15;;;;;;;17.85;8.52;;;;;;;12.45;59.03;101976.66;5051361;28;20032;-72
2020/12/18 00:48:41;;;;;;;21.80;8.95;;;;;;;12.32;59.45;101972.34;5069207;28;20578;-72
2020/12/18 00:51:06;;;;;;;21.25;8.18;;;;;;;12.56;58.61;101980.97;5069286;28;20444;-73
2020/12/18 00:53:35;;;;;;;19.70;8.18;;;;;;;11.82;60.53;101974.00;5069588;28;20036;-71
2020/12/18 00:56:00;;;;;;;18.23;7.65;;;;;;;12.10;59.72;101981.88;5071393;28;20040;-72
2020/12/18 00:58:26;;;;;;;19.83;8.38;;;;;;;12.19;59.77;101974.09;5084034;28;20070;-72
2020/12/18 01:00:52;;;;;;;21.35;8.30;;;;;;;12.02;59.95;101968.88;5067524;28;20719;-71
2020/12/18 01:03:21;;;;;;;17.77;8.20;;;;;;;11.88;60.00;101980.97;5066700;28;20036;-70
2020/12/18 01:05:46;;;;;;;19.23;8.05;;;;;;;12.18;58.74;101971.50;5061173;28;20043;-70
2020/12/18 01:08:17;;;;;;;15.18;7.85;;;;;;;12.51;57.53;101967.16;5051325;28;20075;-71
2020/12/18 01:10:43;;;;;;;24.80;8.98;;;;;;;11.72;60.16;101972.28;5082864;28;20575;-71
2020/12/18 01:13:08;;;;;;;15.95;7.80;;;;;;;12.06;59.24;101964.59;5066853;28;20104;-71
2020/12/18 01:15:35;;;;;;;13.73;8.40;;;;;;;12.10;58.82;101976.69;5066534;28;20032;-71
2020/12/18 01:18:14;;;;;;;15.07;7.40;;;;;;;11.43;60.71;101973.06;5066611;28;20032;-71
2020/12/18 01:20:45;;;;;;;12.37;6.20;;;;;;;11.76;59.83;101976.59;5066121;28;20024;-71
2020/12/18 01:23:10;;;;;;;13.90;8.13;;;;;;;11.42;60.58;101981.69;5065699;28;20289;-71
2020/12/18 01:25:38;;;;;;;17.65;8.82;;;;;;;11.54;60.76;101985.16;5067879;28;20613;-71
2020/12/18 01:28:03;;;;;;;19.63;8.63;;;;;;;11.96;58.65;101973.19;5068309;28;20048;-71
2020/12/18 01:30:31;;;;;;;19.73;8.05;;;;;;;11.81;59.28;101974.00;5067160;28;20051;-71
2020/12/18 01:32:57;;;;;;;21.30;8.38;;;;;;;12.00;58.33;101969.75;5066761;28;20715;-71
2020/12/18 01:35:22;;;;;;;17.85;8.63;;;;;;;11.74;59.23;101970.53;5069176;28;20115;-70
2020/12/18 01:37:57;;;;;;;12.77;7.82;;;;;;;11.60;59.67;101964.47;5067797;28;20035;-71
2020/12/18 01:40:25;;;;;;;17.50;7.78;;;;;;;11.56;59.77;101970.50;5064665;28;20068;-71
2020/12/18 01:42:51;;;;;;;20.65;8.48;;;;;;;12.01;58.37;101976.66;5063628;28;20092;-71
2020/12/18 01:45:16;;;;;;;16.52;8.80;;;;;;;11.88;58.36;101974.91;5068652;28;20109;-71
2020/12/18 01:47:58;;;;;;;26.00;6.63;;;;;;;11.71;59.18;101974.88;5068540;28;20127;-71
2020/12/18 01:50:26;;;;;;;13.73;7.25;;;;;;;11.72;59.20;101982.66;5084908;28;20033;-71
2020/12/18 01:52:57;;;;;;;13.73;8.32;;;;;;;10.86;61.88;101974.53;5067493;28;20076;-71
2020/12/18 01:55:39;;;;;;;16.17;7.70;;;;;;;11.21;61.23;101979.03;5068112;28;20032;-71
2020/12/18 01:58:05;;;;;;;18.20;8.00;;;;;;;11.46;60.24;101974.78;5065876;28;20093;-72
2020/12/18 02:00:38;;;;;;;15.60;8.82;;;;;;;11.22;61.13;101970.38;5066786;28;20656;-71
2020/12/18 02:03:06;;;;;;;21.23;9.40;;;;;;;11.36;60.74;101981.69;5083948;28;20032;-71
2020/12/18 02:06:02;;;;;;;16.83;6.25;;;;;;;11.22;60.61;101973.84;5063384;28;20097;-71
2020/12/18 02:08:41;;;;;;;18.08;7.88;;;;;;;11.35;60.71;101977.34;5083496;28;20077;-71
2020/12/18 02:11:22;;;;;;;22.73;7.60;;;;;;;11.48;59.92;101974.81;5067383;28;20055;-71
2020/12/18 02:13:52;;;;;;;15.33;7.43;;;;;;;11.00;61.50;101978.03;5068780;28;20051;-71
2020/12/18 02:16:18;;;;;;;15.98;8.02;;;;;;;11.37;60.38;101985.13;5066002;28;20043;-70
2020/12/18 02:18:46;;;;;;;18.88;7.95;;;;;;;11.37;59.92;101975.63;5066049;28;20036;-70
2020/12/18 02:21:12;;;;;;;16.35;8.88;;;;;;;11.39;60.22;101968.75;5083022;28;20040;-70
2020/12/18 02:23:40;;;;;;;17.35;8.35;;;;;;;11.40;59.85;101975.63;5067840;28;20039;-71
2020/12/18 02:26:10;;;;;;;22.40;8.88;;;;;;;11.51;59.11;101977.41;5085398;28;20090;-70
2020/12/18 02:28:42;;;;;;;18.58;7.80;;;;;;;11.15;60.73;101977.25;5065172;28;20043;-71
2020/12/18 02:31:08;;;;;;;14.95;7.88;;;;;;;11.46;59.46;101976.53;5067600;28;20028;-71
2020/12/18 02:33:42;;;;;;;18.77;8.20;;;;;;;11.41;59.26;101976.50;5065367;28;20398;-70
2020/12/18 02:36:13;;;;;;;11.93;6.35;;;;;;;11.48;59.10;101975.66;5082281;28;20028;-71
2020/12/18 02:38:42;;;;;;;16.60;6.35;;;;;;;11.18;59.84;101977.25;5065602;28;20066;-71
2020/12/18 02:41:09;;;;;;;13.73;6.57;;;;;;;11.12;60.34;101976.38;5065457;28;20036;-71
2020/12/18 02:43:53;;;;;;;14.35;7.10;;;;;;;11.38;59.14;101973.91;5078442;28;20127;-71
2020/12/18 02:46:19;;;;;;;11.88;6.50;;;;;;;11.43;58.71;101983.41;5064187;28;20143;-71
2020/12/18 02:48:46;;;;;;;12.40;5.90;;;;;;;11.45;58.68;101974.78;5067085;28;20043;-70
2020/12/18 02:51:24;;;;;;;15.20;7.60;;;;;;;11.32;59.14;101974.75;5066477;28;20025;-71
2020/12/18 02:54:27;;;;;;;13.40;7.32;;;;;;;11.04;60.01;101978.06;5066385;28;20044;-71
2020/12/18 02:57:01;;;;;;;13.63;6.38;;;;;;;11.41;58.43;101976.50;5065466;28;20036;-70
2020/12/18 02:59:52;;;;;;;12.90;5.72;;;;;;;11.24;59.10;101976.44;5063936;28;20117;-71
2020/12/18 03:02:19;;;;;;;12.43;7.15;;;;;;;10.83;60.35;101978.81;5066680;28;20100;-71
2020/12/18 03:04:47;;;;;;;11.93;6.32;;;;;;;11.02;60.13;101986.69;5065627;28;20078;-71
2020/12/18 03:07:38;;;;;;;9.07;4.57;;;;;;;10.90;60.38;101980.59;5064637;28;20036;-70
2020/12/18 03:10:04;;;;;;;16.58;7.38;;;;;;;10.69;61.41;101974.41;5066215;28;20047;-70
2020/12/18 03:12:30;;;;;;;12.25;6.65;;;;;;;11.05;59.88;101979.78;5066675;28;20673;-71
2020/12/18 03:14:56;;;;;;;13.95;6.82;;;;;;;10.50;62.15;101970.84;5067527;28;20478;-70
2020/12/18 03:17:41;;;;;;;19.50;7.22;;;;;;;10.57;61.12;101966.59;5067284;28;20052;-71
2020/12/18 03:20:08;;;;;;;14.70;6.85;;;;;;;10.82;60.35;101972.78;5083014;28;20086;-73
2020/12/18 03:22:41;;;;;;;13.35;7.22;;;;;;;10.67;60.30;101973.56;5067470;28;20036;-71
2020/12/18 03:25:26;;;;;;;22.13;7.15;;;;;;;10.93;59.88;101978.88;5064270;28;20078;-71
2020/12/18 03:28:05;;;;;;;10.85;5.72;;;;;;;11.06;59.08;101971.19;5083318;28;20036;-71
2020/12/18 03:30:33;;;;;;;17.35;7.43;;;;;;;11.06;59.46;101971.19;5064294;28;20032;-71
2020/12/18 03:33:03;;;;;;;10.90;5.88;;;;;;;11.05;59.54;101975.50;5050582;28;20052;-71
2020/12/18 03:35:30;;;;;;;12.30;7.60;;;;;;;11.01;59.53;101984.97;5065500;28;20105;-71
2020/12/18 03:37:55;;;;;;;13.65;6.50;;;;;;;10.91;59.62;101979.72;5067871;28;20032;-71
2020/12/18 03:40:24;;;;;;;14.30;6.90;;;;;;;10.85;59.81;101971.94;5066447;28;20771;-72
2020/12/18 03:43:01;;;;;;;19.88;7.15;;;;;;;10.80;60.18;101977.06;5064264;28;20104;-71
2020/12/18 03:45:31;;;;;;;16.88;6.90;;;;;;;10.58;60.71;101978.66;5082720;28;20745;-71
2020/12/18 03:48:10;;;;;;;18.33;8.43;;;;;;;9.90;63.19;101982.38;5051865;28;20025;-71
2020/12/18 03:50:52;;;;;;;15.43;7.53;;;;;;;10.28;61.59;101985.28;5065628;28;20024;-71
2020/12/18 03:53:26;;;;;;;16.42;7.78;;;;;;;10.66;60.81;101982.16;5062313;28;20425;-72
2020/12/18 03:56:04;;;;;;;14.35;6.88;;;;;;;10.68;60.41;101977.00;5083379;28;20033;-71
2020/12/18 03:58:38;;;;;;;15.80;7.97;;;;;;;10.79;60.07;101973.63;5050090;28;20037;-71
2020/12/18 04:01:35;;;;;;;16.88;7.45;;;;;;;10.80;60.01;101971.91;5065789;28;20029;-71
2020/12/18 04:04:01;;;;;;;14.18;7.10;;;;;;;10.70;60.31;101973.56;5066280;28;20037;-70
2020/12/18 04:06:28;;;;;;;13.15;7.97;;;;;;;10.31;61.69;101974.16;5065188;28;20095;-71
2020/12/18 04:08:54;;;;;;;19.05;7.75;;;;;;;10.41;61.81;101975.97;5065766;28;20041;-71
2020/12/18 04:11:24;;;;;;;21.80;8.25;;;;;;;10.67;60.49;101977.84;5062604;28;20110;-71
2020/12/18 04:14:00;;;;;;;15.43;7.72;;;;;;;10.66;60.43;101981.31;5065940;28;20040;-72
2020/12/18 04:16:37;;;;;;;16.02;7.75;;;;;;;10.58;60.21;101979.53;5081921;28;20032;-72
2020/12/18 04:19:04;;;;;;;15.65;7.85;;;;;;;10.47;60.85;101970.84;5066002;28;20539;-71
2020/12/18 04:21:31;;;;;;;19.42;7.20;;;;;;;10.76;59.82;101977.91;5069698;28;20040;-70
2020/12/18 04:24:06;;;;;;;13.75;7.53;;;;;;;10.60;59.97;101971.78;5066790;28;20085;-71
2020/12/18 04:26:35;;;;;;;14.43;7.22;;;;;;;10.48;60.91;101974.28;5061553;28;20478;-71
2020/12/18 04:29:03;;;;;;;12.45;7.03;;;;;;;10.29;61.49;101968.09;5065846;28;20632;-71
2020/12/18 04:31:29;;;;;;;20.85;8.38;;;;;;;10.44;61.02;101960.47;5064831;28;21054;-71
2020/12/18 04:33:55;;;;;;;18.50;7.88;;;;;;;10.15;61.69;101958.47;5064465;28;20025;-72
2020/12/18 04:36:31;;;;;;;23.42;8.60;;;;;;;10.46;60.63;101951.00;5079618;28;20033;-71
2020/12/18 04:38:56;;;;;;;18.38;9.02;;;;;;;10.15;62.04;101947.28;5063406;28;20354;-71
2020/12/18 04:41:32;;;;;;;16.65;7.47;;;;;;;10.62;60.41;101949.38;5067658;28;20020;-72
2020/12/18 04:44:04;;;;;;;20.42;8.40;;;;;;;10.59;60.53;101959.72;5068653;28;20040;-71
2020/12/18 04:46:42;;;;;;;18.45;8.02;;;;;;;10.51;60.74;101948.44;5052815;28;20056;-71
2020/12/18 04:49:09;;;;;;;21.95;8.23;;;;;;;10.74;60.23;101946.03;5051729;28;20036;-71
2020/12/18 04:51:42;;;;;;;20.77;8.33;;;;;;;10.38;60.95;101948.38;5067299;28;20040;-71
2020/12/18 04:54:21;;;;;;;15.02;7.07;;;;;;;10.48;61.18;101946.72;5084904;28;20502;-71
2020/12/18 04:56:54;;;;;;;12.50;6.57;;;;;;;10.57;60.89;101946.78;5066739;28;20032;-72
2020/12/18 04:59:23;;;;;;;18.38;8.65;;;;;;;10.61;60.72;101947.66;5084885;28;20032;-71
2020/12/18 05:02:02;;;;;;;14.98;7.38;;;;;;;10.22;62.06;101943.03;5069259;28;20032;-72
2020/12/18 05:04:41;;;;;;;12.80;7.47;;;;;;;10.32;61.71;101940.56;5085444;28;20397;-71
2020/12/18 05:07:36;;;;;;;16.95;7.38;;;;;;;9.89;63.19;101939.31;5069705;28;20041;-71
2020/12/18 05:10:07;;;;;;;15.82;6.72;;;;;;;10.26;62.11;101943.06;5069735;28;20491;-71
2020/12/18 05:12:52;;;;;;;17.60;7.38;;;;;;;10.36;62.36;101942.34;5070354;28;20055;-71
2020/12/18 05:15:23;;;;;;;19.92;8.35;;;;;;;9.97;62.92;101943.69;5065558;28;20036;-71
2020/12/18 05:18:14;;;;;;;17.33;7.87;;;;;;;10.28;62.34;101945.69;5047981;28;20044;-71
2020/12/18 05:20:41;;;;;;;15.13;7.28;;;;;;;10.64;60.92;101941.66;5056088;28;20120;-71
2020/12/18 05:23:40;;;;;;;17.23;7.18;;;;;;;10.46;61.96;101945.84;5068631;28;20067;-72
2020/12/18 05:26:30;;;;;;;15.27;7.00;;;;;;;10.16;62.22;101943.88;5063076;28;20049;-70
2020/12/18 05:29:04;;;;;;;16.70;8.85;;;;;;;10.38;61.95;101950.06;5069593;28;20096;-70
2020/12/18 05:31:33;;;;;;;12.25;8.55;;;;;;;10.46;61.40;101948.41;5065263;28;20506;-73
2020/12/18 05:34:15;;;;;;;18.50;8.88;;;;;;;10.52;61.50;101945.03;5053911;28;20032;-73
2020/12/18 05:37:11;;;;;;;19.83;7.88;;;;;;;10.53;61.20;101939.84;5068171;28;20401;-70
2020/12/18 05:40:09;;;;;;;19.23;8.50;;;;;;;10.57;61.48;101936.44;5051157;28;20044;-70
2020/12/18 05:43:07;;;;;;;15.30;9.25;;;;;;;10.08;62.97;101935.19;5068755;28;20043;-71
2020/12/18 05:45:35;;;;;;;15.18;8.35;;;;;;;10.42;61.96;101941.50;5067042;28;20036;-73
2020/12/18 05:48:29;;;;;;;21.05;8.80;;;;;;;10.52;61.60;101948.47;5059785;28;20900;-70
2020/12/18 05:51:37;;;;;;;20.00;8.93;;;;;;;10.48;61.61;101935.50;5068893;28;20453;-73
2020/12/18 05:54:07;;;;;;;17.83;7.75;;;;;;;10.38;62.16;101934.56;5079834;28;20033;-70
2020/12/18 05:56:34;;;;;;;18.30;8.45;;;;;;;10.42;62.14;101928.56;5084114;28;20063;-72
2020/12/18 05:59:16;;;;;;;20.50;9.25;;;;;;;10.13;62.71;101929.19;5067646;28;20031;-72
2020/12/18 06:02:17;;;;;;;25.20;8.55;;;;;;;10.47;62.26;101926.91;5061000;28;20040;-72
2020/12/18 06:05:05;;;;;;;25.27;9.50;;;;;;;10.43;62.03;101917.41;5069417;28;20060;-72
2020/12/18 06:07:53;;;;;;;14.93;8.75;;;;;;;10.32;62.61;101917.31;5069543;28;20805;-72
2020/12/18 06:10:34;;;;;;;15.00;8.38;;;;;;;10.26;62.96;101914.66;5052917;28;20028;-71
2020/12/18 06:13:16;;;;;;;17.98;10.05;;;;;;;10.71;61.72;101920.13;5085264;28;20455;-71
2020/12/18 06:16:02;;;;;;;18.50;9.65;;;;;;;10.60;62.07;101925.25;5055705;28;20398;-71
2020/12/18 06:18:44;;;;;;;18.55;9.77;;;;;;;10.58;62.33;101920.09;5066244;28;20460;-71
2020/12/18 06:21:13;;;;;;;16.75;8.68;;;;;;;10.45;62.83;101920.84;5065987;28;20040;-71
2020/12/18 06:23:45;;;;;;;18.58;10.43;;;;;;;10.38;63.14;101913.91;5066462;28;20068;-71
2020/12/18 06:26:44;;;;;;;18.25;9.63;;;;;;;10.79;62.05;101918.47;5068598;28;20064;-71
2020/12/18 06:29:30;;;;;;;21.70;9.68;;;;;;;10.99;61.50;101918.56;5079763;28;20040;-71
2020/12/18 06:32:30;;;;;;;20.05;9.30;;;;;;;11.14;61.03;101912.56;5066910;28;20050;-71
2020/12/18 06:35:29;;;;;;;20.52;10.18;;;;;;;10.12;64.92;101918.88;5067872;28;20086;-71
2020/12/18 06:38:18;;;;;;;18.83;11.43;;;;;;;10.77;62.42;101907.25;5061898;28;20048;-72
2020/12/18 06:41:23;;;;;;;18.73;10.10;;;;;;;10.45;63.57;101912.22;5067347;28;20032;-71
2020/12/18 06:44:38;;;;;;;18.35;10.63;;;;;;;10.53;63.10;101905.38;5053509;28;20047;-71
2020/12/18 06:47:28;;;;;;;19.65;11.00;;;;;;;10.05;64.13;101915.38;5067989;28;20055;-72
2020/12/18 06:50:35;;;;;;;19.77;9.38;;;;;;;10.09;63.60;101917.13;4983529;28;20038;-71
2020/12/18 06:53:23;;;;;;;21.77;9.25;;;;;;;10.47;63.08;101913.97;5050409;28;20078;-71
2020/12/18 06:56:27;;;;;;;25.33;8.68;;;;;;;9.88;64.14;101912.63;5067330;28;20040;-72
2020/12/18 06:59:18;;;;;;;13.30;7.47;;;;;;;10.84;61.26;101914.16;5066824;28;20771;-71
2020/12/18 07:01:44;;;;;;;23.25;9.05;;;;;;;10.16;63.37;101918.03;5063570;28;20040;-71
2020/12/18 07:04:20;;;;;;;20.15;8.48;;;;;;;10.20;63.02;101924.94;5064478;28;20033;-71
2020/12/18 07:06:46;;;;;;;19.35;8.70;;;;;;;10.27;62.92;101925.84;5065930;28;20095;-71
2020/12/18 07:09:12;;;;;;;27.80;9.52;;;;;;;10.26;62.79;101924.13;5067652;28;20510;-71
2020/12/18 07:11:37;;;;;;;23.35;8.35;;;;;;;10.36;62.47;101925.97;5050066;28;20336;-70
2020/12/18 07:14:03;;;;;;;21.70;8.30;;;;;;;10.41;62.70;101924.28;5069380;28;20559;-73
2020/12/18 07:16:30;;;;;;;21.55;9.43;;;;;;;10.07;63.40;101912.78;5082047;28;20040;-71
2020/12/18 07:19:03;;;;;;;14.98;7.88;;;;;;;9.76;64.90;101915.13;5062031;28;20040;-73
2020/12/18 07:21:31;;;;;;;19.33;8.30;;;;;;;10.39;62.51;101900.13;5082754;28;20032;-72
2020/12/18 07:23:56;;;;;;;17.00;7.75;;;;;;;10.61;61.41;101908.03;5049798;28;20565;-73
2020/12/18 07:26:22;;;;;;;15.95;8.27;;;;;;;10.65;61.62;101894.25;5067363;28;20033;-71
2020/12/18 07:28:48;;;;;;;16.42;8.27;;;;;;;10.52;62.01;101906.25;5082492;28;20394;-73
2020/12/18 07:31:22;;;;;;;22.80;8.10;;;;;;;10.70;61.40;101900.31;5083983;28;20498;-71
2020/12/18 07:34:00;;;;;;;15.98;7.47;;;;;;;10.56;61.63;101903.69;5065901;28;20035;-70
2020/12/18 07:36:28;;;;;;;17.80;7.68;;;;;;;10.15;62.64;101901.66;5067583;28;20088;-70
2020/12/18 07:38:59;;;;;;;19.20;7.47;;;;;;;10.69;61.14;101902.00;5066766;28;20036;-73
2020/12/18 07:41:27;;;;;;;13.55;7.07;;;;;;;10.23;62.60;101903.44;5066758;28;20047;-72
2020/12/18 07:43:52;;;;;;;20.10;9.20;;;;;;;10.60;61.89;101907.13;5065180;28;20036;-71
2020/12/18 07:46:19;;;;;;;15.73;7.97;;;;;;;11.00;60.37;101905.59;5052733;28;20028;-71
2020/12/18 07:48:46;;;;;;;12.77;7.63;;;;;;;10.64;61.26;101895.09;5081854;28;20105;-71
2020/12/18 07:51:20;;;;;;;23.58;7.95;;;;;;;10.55;62.02;101906.25;5083014;28;20025;-71
2020/12/18 07:53:50;;;;;;;17.85;6.65;;;;;;;10.77;61.10;101902.06;5070665;28;20032;-70
2020/12/18 07:56:20;;;;;;;14.85;7.85;;;;;;;10.47;62.15;101902.75;5069685;28;20097;-71
2020/12/18 07:58:52;;;;;;;16.10;6.88;;;;;;;10.45;62.13;101905.34;5066234;28;20024;-70
2020/12/18 08:01:23;;;;;;;12.82;6.28;;;;;;;10.67;61.60;101905.44;5060529;28;20586;-71
2020/12/18 08:03:50;;;;;;;12.30;6.18;;;;;;;10.45;62.17;101907.94;5081614;28;20037;-71
2020/12/18 08:06:18;;;;;;;16.30;7.88;;;;;;;10.34;62.36;101899.25;5066770;28;20032;-70
2020/12/18 08:08:51;;;;;;;24.65;8.52;;;;;;;10.84;60.74;101888.31;5062237;28;20815;-72
2020/12/18 08:11:18;;;;;;;13.93;5.72;;;;;;;10.44;61.63;101880.34;5068885;28;20066;-71
2020/12/18 08:13:44;;;;;;;20.10;6.72;;;;;;;10.62;61.75;101881.31;5067945;28;20055;-70
2020/12/18 08:16:21;;;;;;;21.13;7.15;;;;;;;10.69;61.26;101878.75;5070970;28;20039;-70
2020/12/18 08:18:50;;;;;;;14.98;6.95;;;;;;;11.00;60.67;101873.72;5070783;28;20067;-70
2020/12/18 08:21:20;;;;;;;16.77;6.13;;;;;;;10.94;60.39;101890.09;5070532;28;20028;-70
2020/12/18 08:23:50;;;;;;;11.85;6.10;;;;;;;10.98;61.09;101893.53;5085692;28;20024;-72
2020/12/18 08:26:16;;;;;;;19.77;6.80;;;;;;;11.42;59.36;101903.16;5072408;28;20608;-71
2020/12/18 08:28:43;;;;;;;16.38;6.63;;;;;;;11.08;60.16;101903.06;5071630;28;20040;-70
2020/12/18 08:31:09;;;;;;;11.60;6.20;;;;;;;11.12;60.02;101911.69;5069096;28;20082;-72
2020/12/18 08:33:45;;;;;;;12.35;7.03;;;;;;;11.50;59.09;101914.41;5070722;28;20071;-71
2020/12/18 08:36:13;;;;;;;10.98;5.20;;;;;;;10.81;61.23;101914.16;5066380;28;20194;-70
2020/12/18 08:38:39;;;;;;;12.93;6.00;;;;;;;11.41;59.60;101910.06;5070339;28;20052;-70
2020/12/18 08:41:04;;;;;;;13.55;6.05;;;;;;;11.01;60.58;101917.69;5071130;28;20033;-71
2020/12/18 08:43:30;;;;;;;10.32;6.03;;;;;;;11.66;58.94;101907.53;5070157;28;20033;-71
2020/12/18 08:45:56;;;;;;;19.38;6.18;;;;;;;11.69;58.62;101911.84;5070516;28;20414;-72
2020/12/18 08:48:26;;;;;;;12.75;6.07;;;;;;;11.45;59.62;101917.84;5071321;28;20105;-70
2020/12/18 08:50:58;;;;;;;11.52;5.50;;;;;;;11.80;58.25;101904.94;5064648;28;20108;-72
2020/12/18 08:53:32;;;;;;;13.65;5.45;;;;;;;11.87;58.22;101916.16;5070456;28;20035;-70
2020/12/18 08:56:06;;;;;;;10.73;5.85;;;;;;;11.58;59.26;101911.81;5084063;28;20029;-71
2020/12/18 08:58:33;;;;;;;9.93;5.38;;;;;;;11.89;58.06;101914.47;5070059;28;20058;-72
2020/12/18 09:01:00;;;;;;;7.68;4.50;;;;;;;11.42;59.02;101919.53;5084561;28;20065;-70
2020/12/18 09:03:26;;;;;;;11.70;5.05;;;;;;;11.67;58.71;101914.41;5070500;28;20071;-70
2020/12/18 09:05:52;;;;;;;15.63;5.38;;;;;;;10.90;61.36;101913.34;5070027;28;20064;-70
2020/12/18 09:08:20;;;;;;;10.52;4.70;;;;;;;11.42;59.87;101914.38;5071568;28;20028;-72
2020/12/18 09:10:56;;;;;;;11.10;4.80;;;;;;;11.32;59.88;101928.16;5071400;28;20063;-70
2020/12/18 09:13:28;;;;;;;9.00;4.43;;;;;;;11.19;60.64;101913.47;5067881;28;20028;-71
2020/12/18 09:15:56;;;;;;;;;;;;;;;11.22;60.51;101921.22;5071653;28;20417;-71
2020/12/18 09:18:24;;;;;;;11.85;4.50;;;;;;;11.61;59.08;101932.56;5057583;28;19916;-71
2020/12/18 09:20:52;;;;;;;13.85;5.18;;;;;;;12.17;58.11;101925.72;5086048;28;20044;-71
2020/12/18 09:23:28;;;;;;;5.75;4.28;;;;;;;11.71;58.98;101915.28;5070328;28;20108;-71
2020/12/18 09:25:53;;;;;;;18.48;4.50;;;;;;;12.06;58.45;101920.53;5086575;28;20036;-71
2020/12/18 09:28:22;;;;;;;13.45;4.72;;;;;;;12.61;56.94;101909.19;5087001;28;20199;-70
2020/12/18 09:30:56;;;;;;;11.15;3.80;;;;;;;12.32;57.86;101920.50;5085350;28;20039;-70
2020/12/18 09:33:25;;;;;;;7.05;3.90;;;;;;;13.28;55.45;101918.47;5069276;28;20040;-70
2020/12/18 09:36:11;;;;;;;6.78;3.53;;;;;;;13.38;55.08;101912.38;5048341;28;20041;-71
2020/12/18 09:38:41;;;;;;;8.82;3.50;;;;;;;12.39;57.55;101921.34;5056497;28;20033;-71
2020/12/18 09:41:18;;;;;;;14.25;3.67;;;;;;;13.44;54.14;101916.66;5085988;28;20155;-72
2020/12/18 09:43:44;;;;;;;7.28;3.50;;;;;;;13.33;54.83;101905.47;5069851;28;20040;-71
2020/12/18 09:46:13;;;;;;;9.15;3.00;;;;;;;13.02;55.77;101910.81;5068305;28;20081;-70
2020/12/18 09:48:46;;;;;;;7.40;2.92;;;;;;;13.50;54.38;101908.84;5067249;28;20020;-70
2020/12/18 09:51:12;;;;;;;6.82;3.67;;;;;;;12.34;57.36;101910.13;5067423;28;20167;-71
2020/12/18 09:53:38;;;;;;;9.98;3.20;;;;;;;13.04;55.99;101911.66;5066690;28;20077;-71
2020/12/18 09:56:07;;;;;;;6.15;4.10;;;;;;;13.84;53.76;101918.97;5066930;28;20119;-71
2020/12/18 09:58:32;;;;;;;7.43;2.88;;;;;;;13.63;54.65;101917.41;5064959;28;20735;-72
2020/12/18 10:00:58;;;;;;;9.30;3.25;;;;;;;13.49;54.03;101905.38;5068921;28;20043;-71
2020/12/18 10:03:23;;;;;;;7.05;2.45;;;;;;;14.49;52.68;101914.09;5069060;28;20115;-71
2020/12/18 10:05:49;;;;;;;5.88;2.45;;;;;;;14.30;52.45;101897.78;5065703;28;20036;-71
2020/12/18 10:08:17;;;;;;;7.72;3.03;;;;;;;13.57;54.35;101901.88;5067975;28;20040;-71
2020/12/18 10:10:43;;;;;;;5.90;1.98;;;;;;;13.42;55.23;101892.47;5051495;28;20051;-71
2020/12/18 10:13:08;;;;;;;5.82;2.47;;;;;;;13.69;54.24;101896.59;5084265;28;20118;-71
2020/12/18 10:15:34;;;;;;;6.22;2.70;;;;;;;13.83;53.97;101891.28;5067399;28;20028;-70
2020/12/18 10:17:59;;;;;;;3.30;2.60;;;;;;;13.93;53.84;101892.06;5065284;28;20028;-71
2020/12/18 10:20:25;;;;;;;10.90;2.83;;;;;;;13.68;53.70;101900.06;5084233;28;20032;-72
2020/12/18 10:22:51;;;;;;;10.68;2.65;;;;;;;13.87;53.24;101909.44;5067477;28;20801;-71
2020/12/18 10:25:16;;;;;;;6.85;2.17;;;;;;;13.18;55.61;101909.84;5068056;28;20128;-71
2020/12/18 10:27:43;;;;;;;4.82;2.00;;;;;;;13.34;55.17;101900.28;5067315;28;20393;-70
2020/12/18 10:30:09;;;;;;;3.47;2.83;;;;;;;13.10;55.51;101885.66;5070340;28;20109;-71
2020/12/18 10:32:35;;;;;;;6.78;2.63;;;;;;;12.93;56.29;101898.72;5066944;28;20071;-71
2020/12/18 10:35:02;;;;;;;14.93;2.47;;;;;;;12.93;56.08;101893.53;5066435;28;20040;-72
2020/12/18 10:37:27;;;;;;;7.00;2.17;;;;;;;13.05;56.39;101903.00;5064986;28;20067;-71
2020/12/18 10:39:53;;;;;;;6.32;2.03;;;;;;;13.77;54.56;101904.31;5067471;28;20696;-71
2020/12/18 10:42:20;;;;;;;6.93;2.45;;;;;;;13.06;56.47;101892.63;5067530;28;20116;-71
2020/12/18 10:44:47;;;;;;;13.02;2.58;;;;;;;13.59;55.40;101900.13;5066433;28;20059;-70
2020/12/18 10:47:13;;;;;;;8.38;2.45;;;;;;;12.85;56.53;101900.47;5066775;28;20514;-70
2020/12/18 10:49:39;;;;;;;6.97;2.80;;;;;;;12.66;58.02;101900.56;5064038;28;20071;-71
2020/12/18 10:52:05;;;;;;;6.68;2.80;;;;;;;13.42;55.54;101892.47;5065985;28;20056;-70
2020/12/18 10:54:31;;;;;;;4.80;3.05;;;;;;;13.98;54.44;101898.97;5067183;28;20036;-70
2020/12/18 10:56:57;;;;;;;4.07;1.83;;;;;;;12.61;57.35;101899.72;5065025;28;20467;-70
2020/12/18 10:59:24;;;;;;;8.52;2.45;;;;;;;12.74;57.21;101908.31;5067503;28;20128;-70
2020/12/18 11:01:54;;;;;;;7.90;1.73;;;;;;;13.72;55.59;101901.75;5066598;28;20194;-71
2020/12/18 11:04:20;;;;;;;5.25;1.77;;;;;;;12.80;56.82;101907.44;5071873;28;20102;-71
2020/12/18 11:06:46;;;;;;;7.40;1.60;;;;;;;12.98;56.92;101896.97;5066181;28;20028;-71
2020/12/18 11:09:12;;;;;;;7.78;2.80;;;;;;;13.19;55.87;101889.94;5085303;28;20036;-70
2020/12/18 11:11:38;;;;;;;5.28;2.33;;;;;;;12.91;57.21;101884.91;5067600;28;20417;-70
2020/12/18 11:14:04;;;;;;;8.77;2.90;;;;;;;12.28;58.40;101904.94;5067242;28;20032;-70
2020/12/18 11:16:29;;;;;;;5.18;2.00;;;;;;;13.53;55.45;101910.53;5067376;28;20071;-70
2020/12/18 11:18:55;;;;;;;4.03;2.00;;;;;;;13.00;56.58;101921.19;5065368;28;20028;-71
2020/12/18 11:21:21;;;;;;;8.25;2.60;;;;;;;13.68;54.96;101931.22;5061743;28;20120;-70
2020/12/18 11:23:46;;;;;;;7.93;3.65;;;;;;;13.12;56.92;101934.97;5064288;28;20671;-71
2020/12/18 11:26:12;;;;;;;10.68;2.92;;;;;;;13.19;56.65;101934.06;5066084;28;20032;-70
2020/12/18 11:28:38;;;;;;;7.85;4.68;;;;;;;13.66;55.30;101932.97;5082546;28;20032;-72
2020/12/18 11:31:05;;;;;;;10.38;4.97;;;;;;;13.43;56.18;101927.94;5069739;28;20047;-72
2020/12/18 11:33:31;;;;;;;6.20;4.55;;;;;;;12.90;57.03;101923.81;5063052;28;20074;-70
2020/12/18 11:35:57;;;;;;;9.85;4.30;;;;;;;13.16;56.50;101928.91;5067559;28;20508;-72
2020/12/18 11:38:22;;;;;;;6.25;4.18;;;;;;;13.13;56.39;101916.81;5063076;28;20115;-70
2020/12/18 11:40:48;;;;;;;8.75;3.90;;;;;;;13.28;56.54;101921.97;5062290;28;20106;-70